TimeMDT,TemperatureF,Dew PointF,Humidity,Sea Level PressureIn,VisibilityMPH,Wind Direction,Wind SpeedMPH,Gust SpeedMPH,PrecipitationIn,Events,Conditions,WindDirDegrees,DateUTC
12:51 AM,32.0,28.0,85,30.16,-9999.0,Calm,Calm,-,N/A,,Unknown,0,2013-11-01 06:51:00
1:51 AM,30.0,26.1,85,30.17,-9999.0,Calm,Calm,-,N/A,,Unknown,0,2013-11-01 07:51:00
2:51 AM,26.1,25.0,96,30.19,-9999.0,South,3.5,-,N/A,,Unknown,180,2013-11-01 08:51:00
3:51 AM,25.0,23.0,92,30.21,-9999.0,Calm,Calm,-,N/A,,Unknown,0,2013-11-01 09:51:00
4:51 AM,24.1,21.9,91,30.23,-9999.0,Calm,Calm,-,N/A,,Unknown,0,2013-11-01 10:51:00
5:51 AM,23.0,21.9,96,30.25,-9999.0,Calm,Calm,-,N/A,,Unknown,0,2013-11-01 11:51:00
6:51 AM,21.0,19.0,92,30.26,-9999.0,Calm,Calm,-,N/A,,Unknown,0,2013-11-01 12:51:00
7:51 AM,21.9,19.9,92,30.27,-9999.0,Calm,Calm,-,N/A,,Unknown,0,2013-11-01 13:51:00
8:51 AM,21.0,19.0,92,30.30,-9999.0,South,3.5,-,N/A,,Unknown,170,2013-11-01 14:51:00
9:51 AM,26.1,21.9,84,30.29,-9999.0,Calm,Calm,-,N/A,,Unknown,0,2013-11-01 15:51:00
10:51 AM,30.9,26.1,82,30.26,-9999.0,Calm,Calm,-,N/A,,Unknown,0,2013-11-01 16:51:00
11:51 AM,33.1,27.0,78,30.26,-9999.0,NNW,4.6,-,N/A,,Unknown,340,2013-11-01 17:51:00
12:51 PM,39.9,26.1,58,30.21,-9999.0,North,4.6,-,N/A,,Unknown,350,2013-11-01 18:51:00
1:51 PM,43.0,23.0,45,30.19,-9999.0,Variable,3.5,-,N/A,,Unknown,0,2013-11-01 19:51:00
2:51 PM,45.0,25.0,46,30.19,-9999.0,North,4.6,-,N/A,,Unknown,350,2013-11-01 20:51:00
3:51 PM,46.9,24.1,41,30.17,-9999.0,Calm,Calm,-,N/A,,Unknown,0,2013-11-01 21:51:00
4:51 PM,46.9,23.0,39,30.15,-9999.0,Calm,Calm,-,N/A,,Unknown,0,2013-11-01 22:51:00
5:51 PM,39.0,26.1,60,30.19,-9999.0,Calm,Calm,-,N/A,,Unknown,0,2013-11-01 23:51:00
6:51 PM,34.0,26.1,73,30.21,-9999.0,Calm,Calm,-,N/A,,Unknown,0,2013-11-02 00:51:00
7:51 PM,30.9,26.1,82,30.22,-9999.0,Calm,Calm,-,N/A,,Unknown,0,2013-11-02 01:51:00
8:51 PM,28.0,25.0,88,30.24,-9999.0,Calm,Calm,-,N/A,,Unknown,0,2013-11-02 02:51:00
9:51 PM,25.0,23.0,92,30.22,-9999.0,South,3.5,-,N/A,,Unknown,170,2013-11-02 03:51:00
10:51 PM,24.1,21.9,91,30.21,-9999.0,Calm,Calm,-,N/A,,Unknown,0,2013-11-02 04:51:00
11:51 PM,23.0,21.0,92,30.19,-9999.0,Calm,Calm,-,N/A,,Unknown,0,2013-11-02 05:51:00